createdAt,value
2023-02-18T00:00:28.231Z,98273.66
2023-02-18T00:02:56.125Z,98314.94
2023-02-18T00:05:23.203Z,98311.47
2023-02-18T00:07:50.124Z,98283.06
2023-02-18T00:10:17.362Z,98311.50
2023-02-18T00:12:44.211Z,98337.41
2023-02-18T00:15:11.108Z,98290.81
2023-02-18T00:17:37.981Z,98308.16
2023-02-18T00:20:06.843Z,98320.22
2023-02-18T00:22:33.700Z,98340.91
2023-02-18T00:25:00.544Z,98344.25
2023-02-18T00:27:27.487Z,98316.69
2023-02-18T00:29:54.383Z,98306.16
2023-02-18T00:32:21.270Z,98323.25
2023-02-18T00:34:48.253Z,98343.75
2023-02-18T00:37:15.126Z,98350.72
2023-02-18T00:39:42.145Z,98368.06
2023-02-18T00:42:09.047Z,98343.03
2023-02-18T00:44:35.985Z,98370.88
2023-02-18T00:47:02.843Z,98370.69
2023-02-18T00:49:29.808Z,98406.53
2023-02-18T00:51:56.620Z,98363.31
2023-02-18T00:54:23.472Z,98394.63
2023-02-18T00:56:51.080Z,98384.47
2023-02-18T00:59:17.920Z,98371.53
2023-02-18T01:01:44.806Z,98394.81
2023-02-18T01:04:11.992Z,98408.69
2023-02-18T01:06:39.138Z,98384.69
2023-02-18T01:09:06.253Z,98382.88
2023-02-18T01:11:33.336Z,98375.63
2023-02-18T01:14:00.366Z,98387.91
2023-02-18T01:16:29.733Z,98381.06
2023-02-18T01:18:56.586Z,98411.06
2023-02-18T01:21:23.421Z,98386.09
2023-02-18T01:23:52.308Z,98349.00
2023-02-18T01:26:19.233Z,98428.47
2023-02-18T01:28:46.517Z,98381.53
2023-02-18T01:31:14.609Z,98412.03
2023-02-18T01:33:41.748Z,98428.41
2023-02-18T01:36:10.091Z,98417.00
2023-02-18T01:38:37.185Z,98407.50
2023-02-18T01:41:04.586Z,98407.56
2023-02-18T01:43:32.062Z,98418.75
2023-02-18T01:46:20.281Z,98412.56
2023-02-18T01:48:54.310Z,98410.81
2023-02-18T01:51:28.860Z,98410.97
2023-02-18T01:54:18.807Z,98405.03
2023-02-18T01:56:50.190Z,98355.78
2023-02-18T01:59:29.940Z,98399.53
2023-02-18T02:01:57.222Z,98441.91
2023-02-18T02:04:24.301Z,98394.66
2023-02-18T02:06:51.289Z,98427.34
2023-02-18T02:09:20.060Z,98423.94
2023-02-18T02:12:16.143Z,98446.41
2023-02-18T02:15:22.884Z,98404.16
2023-02-18T02:18:13.639Z,98411.84
2023-02-18T02:21:20.361Z,98387.28
2023-02-18T02:24:26.983Z,98420.53
2023-02-18T02:27:13.526Z,98412.88
2023-02-18T02:30:07.199Z,98410.88
2023-02-18T02:33:12.087Z,98428.47
2023-02-18T02:35:48.103Z,98419.78
2023-02-18T02:38:47.308Z,98413.56
2023-02-18T02:41:38.842Z,98417.78
2023-02-18T02:44:30.587Z,98448.78
2023-02-18T02:47:02.888Z,98479.84
2023-02-18T02:49:54.044Z,98438.66
2023-02-18T02:52:32.869Z,98420.47
2023-02-18T02:55:00.073Z,98426.50
2023-02-18T02:57:48.483Z,98434.13
2023-02-18T03:00:27.411Z,98425.81
2023-02-18T03:03:18.002Z,98435.16
2023-02-18T03:06:23.363Z,98443.03
2023-02-18T03:09:11.088Z,98462.94
2023-02-18T03:11:44.905Z,98466.44
2023-02-18T03:14:42.733Z,98468.91
2023-02-18T03:17:18.826Z,98456.06
2023-02-18T03:19:55.809Z,98474.13
2023-02-18T03:22:26.885Z,98498.13
2023-02-18T03:24:56.082Z,98462.09
2023-02-18T03:27:38.172Z,98528.53
2023-02-18T03:30:07.936Z,98475.75
2023-02-18T03:32:35.846Z,98468.28
2023-02-18T03:35:08.989Z,98472.63
2023-02-18T03:37:39.907Z,98486.28
2023-02-18T03:40:07.792Z,98477.59
2023-02-18T03:42:34.654Z,98490.84
2023-02-18T03:45:01.753Z,98490.06
2023-02-18T03:47:28.738Z,98501.22
2023-02-18T03:49:55.761Z,98505.59
2023-02-18T03:52:22.589Z,98508.97
2023-02-18T03:54:50.990Z,98503.81
2023-02-18T03:57:17.823Z,98521.09
2023-02-18T03:59:44.708Z,98518.63
2023-02-18T04:02:11.681Z,98498.56
2023-02-18T04:04:38.557Z,98531.22
2023-02-18T04:07:05.726Z,98514.22
2023-02-18T04:09:32.563Z,98533.88
2023-02-18T04:11:59.405Z,98529.44
2023-02-18T04:14:26.204Z,98546.91
2023-02-18T04:16:53.173Z,98522.06
2023-02-18T04:19:20.121Z,98548.72
2023-02-18T04:21:47.039Z,98539.38
2023-02-18T04:24:13.875Z,98527.25
2023-02-18T04:26:40.719Z,98538.19
2023-02-18T04:29:07.541Z,98545.25
2023-02-18T04:31:34.707Z,98568.41
2023-02-18T04:34:01.625Z,98533.34
2023-02-18T04:36:28.639Z,98548.03
2023-02-18T04:38:55.484Z,98552.38
2023-02-18T04:41:22.409Z,98533.44
2023-02-18T04:43:49.215Z,98555.72
2023-02-18T04:46:16.167Z,98545.53
2023-02-18T04:48:43.116Z,98547.16
2023-02-18T04:51:09.969Z,98555.75
2023-02-18T04:53:36.857Z,98586.06
2023-02-18T04:56:03.898Z,98568.88
2023-02-18T04:58:30.780Z,98580.16
2023-02-18T05:01:01.933Z,98586.13
2023-02-18T05:03:29.585Z,98577.63
2023-02-18T05:05:56.536Z,98556.88
2023-02-18T05:08:23.484Z,98607.63
2023-02-18T05:10:50.466Z,98600.03
2023-02-18T05:13:17.520Z,98584.69
2023-02-18T05:15:44.444Z,98594.97
2023-02-18T05:18:11.365Z,98599.13
2023-02-18T05:20:38.209Z,98606.03
2023-02-18T05:23:05.050Z,98598.44
2023-02-18T05:25:31.945Z,98612.16
2023-02-18T05:27:58.750Z,98623.50
2023-02-18T05:30:25.744Z,98631.16
2023-02-18T05:32:52.627Z,98622.63
2023-02-18T05:35:19.590Z,98638.91
2023-02-18T05:37:46.413Z,98601.09
2023-02-18T05:40:13.292Z,98642.41
2023-02-18T05:42:40.233Z,98641.53
2023-02-18T05:45:07.429Z,98640.91
2023-02-18T05:47:34.432Z,98662.50
2023-02-18T05:50:01.369Z,98650.44
2023-02-18T05:52:28.346Z,98636.56
2023-02-18T05:54:55.160Z,98667.53
2023-02-18T05:57:22.149Z,98672.72
2023-02-18T05:59:49.131Z,98666.75
2023-02-18T06:02:16.005Z,98655.50
2023-02-18T06:04:42.823Z,98697.75
2023-02-18T06:07:09.675Z,98654.75
2023-02-18T06:09:36.550Z,98666.88
2023-02-18T06:12:03.697Z,98689.19
2023-02-18T06:14:30.565Z,98690.09
2023-02-18T06:16:57.409Z,98680.44
2023-02-18T06:19:24.370Z,98704.59
2023-02-18T06:21:51.211Z,98685.72
2023-02-18T06:24:18.092Z,98678.06
2023-02-18T06:26:44.900Z,98699.53
2023-02-18T06:29:11.785Z,98689.28
2023-02-18T06:31:38.692Z,98703.88
2023-02-18T06:34:05.621Z,98699.50
2023-02-18T06:36:32.561Z,98697.81
2023-02-18T06:38:59.434Z,98704.66
2023-02-18T06:41:26.362Z,98736.50
2023-02-18T06:43:53.208Z,98703.78
2023-02-18T06:46:20.131Z,98708.09
2023-02-18T06:48:47.152Z,98733.84
2023-02-18T06:51:14.562Z,98736.44
2023-02-18T06:53:41.529Z,98722.59
2023-02-18T06:56:08.758Z,98704.53
2023-02-18T06:58:35.864Z,98704.56
2023-02-18T07:01:03.037Z,98736.41
2023-02-18T07:03:30.100Z,98738.16
2023-02-18T07:05:57.137Z,98726.97
2023-02-18T07:08:24.041Z,98749.34
2023-02-18T07:10:50.919Z,98731.19
2023-02-18T07:13:17.925Z,98726.03
2023-02-18T07:15:44.782Z,98723.50
2023-02-18T07:18:11.739Z,98732.03
2023-02-18T07:20:43.594Z,98731.13
2023-02-18T07:23:11.420Z,98745.78
2023-02-18T07:25:38.306Z,98734.63
2023-02-18T07:28:05.360Z,98696.66
2023-02-18T07:30:32.266Z,98756.06
2023-02-18T07:32:59.202Z,98738.81
2023-02-18T07:35:26.210Z,98755.13
2023-02-18T07:37:53.670Z,98749.13
2023-02-18T07:40:22.358Z,98757.72
2023-02-18T07:42:49.633Z,98773.19
2023-02-18T07:45:16.585Z,98762.81
2023-02-18T07:47:45.600Z,98746.59
2023-02-18T07:50:12.582Z,98774.13
2023-02-18T07:52:39.502Z,98779.28
2023-02-18T07:55:06.900Z,98787.88
2023-02-18T07:57:33.742Z,98805.84
2023-02-18T08:00:00.514Z,98776.53
2023-02-18T08:02:27.485Z,98782.63
2023-02-18T08:04:54.439Z,98788.56
2023-02-18T08:07:22.184Z,98762.69
2023-02-18T08:09:50.767Z,98776.44
2023-02-18T08:12:17.941Z,98782.44
2023-02-18T08:14:44.827Z,98767.78
2023-02-18T08:17:11.666Z,98790.97
2023-02-18T08:19:38.603Z,98811.75
2023-02-18T08:22:05.435Z,98789.34
2023-02-18T08:24:32.361Z,98800.50
2023-02-18T08:27:01.285Z,98791.75
2023-02-18T08:29:29.369Z,98798.53
2023-02-18T08:31:58.443Z,98808.13
2023-02-18T08:34:26.147Z,98809.81
2023-02-18T08:36:53.055Z,98814.84
2023-02-18T08:39:19.995Z,98789.84
2023-02-18T08:41:46.893Z,98811.34
2023-02-18T08:44:13.831Z,98812.25
2023-02-18T08:46:40.748Z,98815.72
2023-02-18T08:49:07.893Z,98809.72
2023-02-18T08:51:35.742Z,98824.34
2023-02-18T08:54:03.058Z,98816.53
2023-02-18T08:56:30.288Z,98815.75
2023-02-18T08:58:57.188Z,98818.22
2023-02-18T09:01:24.198Z,98819.97
2023-02-18T09:03:51.112Z,98830.31
2023-02-18T09:06:17.989Z,98823.47
2023-02-18T09:08:45.194Z,98835.47
2023-02-18T09:11:12.331Z,98827.72
2023-02-18T09:13:39.593Z,98838.91
2023-02-18T09:16:12.685Z,98800.06
2023-02-18T09:18:39.845Z,98844.03
2023-02-18T09:21:09.903Z,98841.47
2023-02-18T09:23:37.208Z,98852.59
2023-02-18T09:26:05.834Z,98847.47
2023-02-18T09:28:33.291Z,98855.16
2023-02-18T09:31:13.658Z,98861.19
2023-02-18T09:33:45.776Z,98849.09
2023-02-18T09:36:13.324Z,98868.03
2023-02-18T09:38:40.181Z,98860.25
2023-02-18T09:41:29.939Z,98867.00
2023-02-18T09:44:03.081Z,98869.50
2023-02-18T09:46:36.226Z,98885.84
2023-02-18T09:49:04.873Z,98866.91
2023-02-18T09:51:31.794Z,98881.47
2023-02-18T09:53:58.940Z,98874.50
2023-02-18T09:56:35.484Z,98870.19
2023-02-18T09:59:05.277Z,98889.94
2023-02-18T10:01:38.267Z,98890.78
2023-02-18T10:04:13.542Z,98894.25
2023-02-18T10:06:40.568Z,98889.13
2023-02-18T10:09:19.762Z,98864.94
2023-02-18T10:11:50.786Z,98865.78
2023-02-18T10:14:17.808Z,98894.38
2023-02-18T10:16:46.645Z,98869.28
2023-02-18T10:19:23.817Z,98889.13
2023-02-18T10:21:52.142Z,98857.22
2023-02-18T10:24:58.921Z,98876.31
2023-02-18T10:27:28.754Z,98855.41
2023-02-18T10:29:57.508Z,98862.38
2023-02-18T10:32:28.321Z,98871.06
2023-02-18T10:35:22.613Z,98883.25
2023-02-18T10:38:12.965Z,98879.75
2023-02-18T10:41:04.667Z,98868.59
2023-02-18T10:43:58.470Z,98923.91
2023-02-18T10:46:42.392Z,98875.63
2023-02-18T10:49:36.686Z,98856.50
2023-02-18T10:52:05.874Z,98857.28
2023-02-18T10:55:05.802Z,98859.94
2023-02-18T10:57:33.320Z,98862.53
2023-02-18T11:00:13.078Z,98866.84
2023-02-18T11:02:40.304Z,98864.25
2023-02-18T11:05:23.965Z,98876.34
2023-02-18T11:07:53.095Z,98859.84
2023-02-18T11:10:33.199Z,98864.16
2023-02-18T11:13:03.140Z,98878.75
2023-02-18T11:15:30.802Z,98874.31
2023-02-18T11:18:12.368Z,98883.81
2023-02-18T11:20:40.141Z,98887.16
2023-02-18T11:23:18.139Z,98869.06
2023-02-18T11:26:05.537Z,98874.31
2023-02-18T11:28:52.820Z,98883.81
2023-02-18T11:31:25.269Z,98878.53
2023-02-18T11:33:57.754Z,98844.66
2023-02-18T11:36:34.999Z,98872.19
2023-02-18T11:39:23.403Z,98883.50
2023-02-18T11:41:57.696Z,98878.50
2023-02-18T11:44:33.601Z,98860.69
2023-02-18T11:47:07.139Z,98877.03
2023-02-18T11:49:35.800Z,98861.41
2023-02-18T11:52:30.298Z,98847.50
2023-02-18T11:55:07.527Z,98857.03
2023-02-18T11:58:17.970Z,98869.09
2023-02-18T12:00:47.559Z,98874.31
2023-02-18T12:03:37.704Z,98866.53
2023-02-18T12:06:24.125Z,98881.97
2023-02-18T12:09:01.404Z,98863.81
2023-02-18T12:11:32.376Z,98876.97
2023-02-18T12:14:00.128Z,98867.47
2023-02-18T12:17:06.034Z,98879.44
2023-02-18T12:19:57.329Z,98861.31
2023-02-18T12:22:45.493Z,98860.44
2023-02-18T12:25:25.916Z,98859.66
2023-02-18T12:28:12.737Z,98876.00
2023-02-18T12:31:00.807Z,98895.06
2023-02-18T12:33:58.737Z,98895.97
2023-02-18T12:36:54.008Z,98891.81
2023-02-18T12:39:53.170Z,98888.31
2023-02-18T12:42:58.516Z,98888.25
2023-02-18T12:45:56.667Z,98903.09
2023-02-18T12:48:48.497Z,98885.84
2023-02-18T12:51:41.588Z,98882.31
2023-02-18T12:54:48.520Z,98884.00
2023-02-18T12:57:45.467Z,98889.97
2023-02-18T13:00:38.829Z,98885.72
2023-02-18T13:03:47.030Z,98888.38
2023-02-18T13:06:54.003Z,98877.16
2023-02-18T13:10:00.716Z,98876.34
2023-02-18T13:12:49.987Z,98872.06
2023-02-18T13:15:24.951Z,98886.78
2023-02-18T13:17:57.004Z,98879.91
2023-02-18T13:20:26.506Z,98869.53
2023-02-18T13:22:54.112Z,98880.75
2023-02-18T13:25:22.251Z,98875.56
2023-02-18T13:28:20.854Z,98874.75
2023-02-18T13:30:54.595Z,98859.22
2023-02-18T13:33:47.547Z,98874.81
2023-02-18T13:36:33.267Z,98879.19
2023-02-18T13:39:09.053Z,98887.81
2023-02-18T13:41:38.993Z,98873.19
2023-02-18T13:44:29.994Z,98869.81
2023-02-18T13:46:58.998Z,98868.06
2023-02-18T13:49:34.766Z,98888.75
2023-02-18T13:52:02.760Z,98884.47
2023-02-18T13:54:46.178Z,98886.19
2023-02-18T13:57:20.209Z,98875.03
2023-02-18T13:59:51.105Z,98880.16
2023-02-18T14:02:37.513Z,98872.47
2023-02-18T14:05:21.141Z,98876.69
2023-02-18T14:07:52.542Z,98874.25
2023-02-18T14:10:33.429Z,98858.69
2023-02-18T14:13:17.896Z,98868.22
2023-02-18T14:15:51.332Z,98867.34
2023-02-18T14:18:36.882Z,98867.34
2023-02-18T14:21:17.159Z,98864.75
2023-02-18T14:23:56.261Z,98864.75
2023-02-18T14:26:31.567Z,98862.19
2023-02-18T14:29:04.424Z,98863.91
2023-02-18T14:31:52.802Z,98865.56
2023-02-18T14:34:47.317Z,98870.78
2023-02-18T14:37:31.938Z,98853.63
2023-02-18T14:40:15.811Z,98865.66
2023-02-18T14:43:11.025Z,98874.28
2023-02-18T14:46:17.770Z,98893.25
2023-02-18T14:49:15.407Z,98880.38
2023-02-18T14:51:43.344Z,98888.13
2023-02-18T14:54:15.514Z,98896.78
2023-02-18T14:56:55.703Z,98903.69
2023-02-18T14:59:25.470Z,98883.91
2023-02-18T15:01:55.880Z,98886.50
2023-02-18T15:04:25.157Z,98885.66
2023-02-18T15:06:59.992Z,98880.53
2023-02-18T15:09:27.088Z,98882.25
2023-02-18T15:12:05.828Z,98883.97
2023-02-18T15:14:35.747Z,98878.81
2023-02-18T15:17:03.020Z,98883.16
2023-02-18T15:19:36.795Z,98882.34
2023-02-18T15:22:03.733Z,98880.63
2023-02-18T15:24:33.303Z,98888.38
2023-02-18T15:27:03.404Z,98879.78
2023-02-18T15:29:36.699Z,98887.53
2023-02-18T15:32:15.771Z,98881.53
2023-02-18T15:34:44.102Z,98895.31
2023-02-18T15:37:14.174Z,98896.19
2023-02-18T15:39:42.559Z,98884.09
2023-02-18T15:42:30.567Z,98913.41
2023-02-18T15:45:05.143Z,98891.03
2023-02-18T15:47:32.910Z,98881.59
2023-02-18T15:50:01.492Z,98885.03
2023-02-18T15:52:33.896Z,98880.69
2023-02-18T15:55:03.874Z,98893.63
2023-02-18T15:57:31.108Z,98896.25
2023-02-18T16:00:05.280Z,98906.59
2023-02-18T16:02:34.340Z,98898.84
2023-02-18T16:05:05.088Z,98895.44
2023-02-18T16:07:38.504Z,98905.78
2023-02-18T16:10:20.194Z,98906.69
2023-02-18T16:12:53.545Z,98906.69
2023-02-18T16:15:27.334Z,98917.00
2023-02-18T16:17:54.394Z,98905.84
2023-02-18T16:20:32.240Z,98923.94
2023-02-18T16:23:03.177Z,98919.66
2023-02-18T16:25:45.081Z,98917.06
2023-02-18T16:28:32.722Z,98930.88
2023-02-18T16:30:59.563Z,98930.00
2023-02-18T16:33:26.450Z,98921.41
2023-02-18T16:35:53.667Z,98918.84
2023-02-18T16:38:22.701Z,98930.94
2023-02-18T16:40:50.077Z,98937.81
2023-02-18T16:43:20.249Z,98935.22
2023-02-18T16:45:53.003Z,98931.78
2023-02-18T16:48:29.374Z,98949.88
2023-02-18T16:50:56.296Z,98938.72
2023-02-18T16:53:23.830Z,98936.19
2023-02-18T16:55:53.975Z,98935.31
2023-02-18T16:58:22.543Z,98951.66
2023-02-18T17:00:53.008Z,98932.78
2023-02-18T17:03:21.637Z,98935.41
2023-02-18T17:05:50.324Z,98941.41
2023-02-18T17:08:28.661Z,98944.03
2023-02-18T17:11:01.508Z,98958.66
2023-02-18T17:13:29.649Z,98944.00
2023-02-18T17:16:01.066Z,98936.34
2023-02-18T17:18:28.446Z,98946.66
2023-02-18T17:20:57.759Z,98957.00
2023-02-18T17:23:25.460Z,98963.00
2023-02-18T17:25:53.615Z,98965.56
2023-02-18T17:28:21.407Z,98968.16
2023-02-18T17:30:57.614Z,98974.19
2023-02-18T17:33:26.392Z,98984.50
2023-02-18T17:35:53.363Z,98973.28
2023-02-18T17:38:20.407Z,98987.88
2023-02-18T17:40:50.063Z,98993.88
2023-02-18T17:43:18.305Z,99017.09
2023-02-18T17:45:49.923Z,98999.88
2023-02-18T17:48:16.952Z,99017.91
2023-02-18T17:50:43.803Z,99032.53
2023-02-18T17:53:12.011Z,99033.41
2023-02-18T17:55:39.372Z,99033.41
2023-02-18T17:58:06.324Z,99035.16
2023-02-18T18:00:35.922Z,99039.44
2023-02-18T18:03:03.443Z,99039.44
2023-02-18T18:05:33.439Z,99042.88
2023-02-18T18:08:01.883Z,99045.47
2023-02-18T18:10:32.193Z,99052.34
2023-02-18T18:13:00.962Z,99048.91
2023-02-18T18:15:31.180Z,99054.94
2023-02-18T18:17:58.927Z,99049.75
2023-02-18T18:20:27.080Z,99054.94
2023-02-18T18:22:55.402Z,99066.09
2023-02-18T18:25:30.874Z,99069.53
2023-02-18T18:27:57.986Z,99063.53
2023-02-18T18:30:29.986Z,99062.69
2023-02-18T18:32:57.788Z,99053.22
2023-02-18T18:35:29.269Z,99065.25
2023-02-18T18:37:57.387Z,99053.22
2023-02-18T18:40:26.886Z,99061.81
2023-02-18T18:42:55.328Z,99069.56
2023-02-18T18:45:31.869Z,99071.28
2023-02-18T18:47:59.448Z,99079.91
2023-02-18T18:50:29.586Z,99086.78
2023-02-18T18:52:57.804Z,99085.91
2023-02-18T18:55:32.093Z,99062.72
2023-02-18T18:58:00.073Z,99080.75
2023-02-18T19:00:36.461Z,99086.78
2023-02-18T19:03:04.508Z,99091.94
2023-02-18T19:05:40.345Z,99087.66
2023-02-18T19:08:08.669Z,99079.03
2023-02-18T19:10:41.688Z,99082.50
2023-02-18T19:13:15.391Z,99085.06
2023-02-18T19:15:42.559Z,99072.19
2023-02-18T19:18:14.353Z,99088.53
2023-02-18T19:20:42.908Z,99079.91
2023-02-18T19:23:10.619Z,99073.91
2023-02-18T19:25:38.875Z,99068.78
2023-02-18T19:28:06.605Z,99073.03
2023-02-18T19:30:35.607Z,99083.34
2023-02-18T19:33:04.548Z,99103.13
2023-02-18T19:35:32.201Z,99104.00
2023-02-18T19:37:59.300Z,99091.09
2023-02-18T19:40:29.424Z,99103.97
2023-02-18T19:42:56.591Z,99109.13
2023-02-18T19:45:23.813Z,99101.41
2023-02-18T19:47:55.050Z,99111.72
2023-02-18T19:50:22.650Z,99113.44
2023-02-18T19:52:52.375Z,99128.06
2023-02-18T19:55:19.572Z,99119.47
2023-02-18T19:57:47.167Z,99124.63
2023-02-18T20:00:16.432Z,99118.59
2023-02-18T20:02:43.660Z,99122.03
2023-02-18T20:05:12.150Z,99136.66
2023-02-18T20:07:41.922Z,99132.38
2023-02-18T20:10:12.581Z,99153.84
2023-02-18T20:12:40.191Z,99149.56
2023-02-18T20:15:08.284Z,99159.88
2023-02-18T20:17:36.497Z,99166.75
2023-02-18T20:20:04.262Z,99170.19
2023-02-18T20:22:31.562Z,99168.44
2023-02-18T20:24:58.893Z,99164.16
2023-02-18T20:27:25.766Z,99158.13
2023-02-18T20:29:52.724Z,99180.47
2023-02-18T20:32:19.667Z,99176.16
2023-02-18T20:34:46.731Z,99169.31
2023-02-18T20:37:13.607Z,99173.63
2023-02-18T20:39:40.612Z,99173.59
2023-02-18T20:42:15.897Z,99158.97
2023-02-18T20:44:43.859Z,99161.56
2023-02-18T20:47:13.128Z,99171.88
2023-02-18T20:49:41.430Z,99174.47
2023-02-18T20:52:12.370Z,99171.00
2023-02-18T20:54:46.066Z,99178.75
2023-02-18T20:57:15.054Z,99178.75
2023-02-18T20:59:42.173Z,99196.78
2023-02-18T21:02:14.484Z,99195.94
2023-02-18T21:04:42.059Z,99218.28
2023-02-18T21:07:15.454Z,99202.81
2023-02-18T21:09:43.236Z,99205.38
2023-02-18T21:12:11.618Z,99207.94
2023-02-18T21:14:40.445Z,99204.53
2023-02-18T21:17:09.554Z,99204.53
2023-02-18T21:19:38.398Z,99203.66
2023-02-18T21:22:05.972Z,99199.34
2023-02-18T21:24:33.232Z,99206.22
2023-02-18T21:27:01.946Z,99201.94
2023-02-18T21:29:29.740Z,99205.34
2023-02-18T21:31:57.487Z,99216.47
2023-02-18T21:34:26.862Z,99201.88
2023-02-18T21:36:53.744Z,99217.34
2023-02-18T21:39:20.600Z,99218.19
2023-02-18T21:41:47.445Z,99208.75
2023-02-18T21:44:14.401Z,99225.06
2023-02-18T21:46:41.963Z,99217.31
2023-02-18T21:49:10.500Z,99215.56
2023-02-18T21:52:02.970Z,99238.69
2023-02-18T21:55:04.071Z,99236.13
2023-02-18T21:57:32.604Z,99240.41
2023-02-18T22:00:03.772Z,99239.50
2023-02-18T22:02:39.278Z,99245.53
2023-02-18T22:05:43.086Z,99254.06
2023-02-18T22:08:10.045Z,99242.91
2023-02-18T22:10:41.635Z,99259.22
2023-02-18T22:13:08.656Z,99253.25
2023-02-18T22:15:35.495Z,99273.88
2023-02-18T22:18:02.420Z,99252.44
2023-02-18T22:20:29.350Z,99244.69
2023-02-18T22:22:56.206Z,99242.97
2023-02-18T22:25:23.068Z,99251.53
2023-02-18T22:27:49.963Z,99248.13
2023-02-18T22:30:18.895Z,99253.25
2023-02-18T22:32:45.786Z,99249.84
2023-02-18T22:35:13.322Z,99249.00
2023-02-18T22:37:41.213Z,99257.59
2023-02-18T22:40:08.484Z,99256.72
2023-02-18T22:42:36.134Z,99233.53
2023-02-18T22:45:03.709Z,99259.34
2023-02-18T22:47:30.584Z,99270.50
2023-02-18T22:49:57.420Z,99280.78
2023-02-18T22:52:24.341Z,99275.66
2023-02-18T22:54:51.862Z,99276.50
2023-02-18T22:57:19.384Z,99272.22
2023-02-18T22:59:46.186Z,99273.06
2023-02-18T23:02:13.014Z,99284.22
2023-02-18T23:04:41.829Z,99280.78
2023-02-18T23:07:09.016Z,99278.22
2023-02-18T23:09:35.904Z,99273.91
2023-02-18T23:12:02.851Z,99275.59
2023-02-18T23:14:30.687Z,99266.13
2023-02-18T23:17:19.929Z,99267.00
2023-02-18T23:19:49.158Z,99259.28
2023-02-18T23:22:20.169Z,99267.81
2023-02-18T23:24:47.368Z,99262.69
2023-02-18T23:27:15.439Z,99266.13
2023-02-18T23:29:42.403Z,99264.38
2023-02-18T23:32:09.622Z,99260.94
2023-02-18T23:34:38.231Z,99266.09
2023-02-18T23:37:05.384Z,99267.75
2023-02-18T23:39:32.482Z,99261.75
2023-02-18T23:41:59.327Z,99259.22
2023-02-18T23:44:27.168Z,99258.31
2023-02-18T23:46:54.264Z,99260.91
2023-02-18T23:49:23.353Z,99256.56
2023-02-18T23:51:52.106Z,99256.56
2023-02-18T23:54:19.377Z,99257.44
2023-02-18T23:56:46.269Z,99247.97
2023-02-18T23:59:13.209Z,99251.44
